Time;durP1;ratioP1;P1;durP2;ratioP2;P2;SDS_P1;SDS_P2;PMS_P1;PMS_P2;Temp;Humidity;BMP_temperature;BMP_pressure;BME280_temperature;BME280_humidity;BME280_pressure;Samples;Min_cycle;Max_cycle;Signal;HPM_P1;HPM_P2
2022/01/30 00:01:51;;;;;;;20.70;3.72;;;8.90;99.90;;;;;;5134948;27;20058;-72
2022/01/30 00:04:17;;;;;;;17.58;3.70;;;8.90;99.90;;;;;;5134366;28;20464;-72
2022/01/30 00:06:43;;;;;;;20.05;4.28;;;8.90;99.90;;;;;;5134372;27;20035;-73
2022/01/30 00:09:15;;;;;;;14.13;3.20;;;9.00;99.90;;;;;;5133532;27;20068;-73
2022/01/30 00:11:45;;;;;;;11.82;3.80;;;9.00;99.90;;;;;;5137226;27;20041;-75
2022/01/30 00:14:14;;;;;;;18.15;4.07;;;8.90;99.90;;;;;;5137521;27;20027;-73
2022/01/30 00:16:41;;;;;;;13.68;3.80;;;8.90;99.90;;;;;;5138381;27;20553;-72
2022/01/30 00:21:40;;;;;;;19.08;4.45;;;9.00;99.90;;;;;;5137499;27;20456;-72
2022/01/30 00:24:12;;;;;;;17.20;4.03;;;9.00;99.90;;;;;;5135529;27;20129;-72
2022/01/30 00:26:39;;;;;;;19.15;3.88;;;9.00;99.90;;;;;;5115917;28;20466;-71
2022/01/30 00:29:06;;;;;;;15.90;3.38;;;8.90;99.90;;;;;;5115181;28;20426;-74
2022/01/30 00:31:32;;;;;;;15.00;3.50;;;8.90;99.90;;;;;;5115404;28;20110;-73
2022/01/30 00:33:59;;;;;;;10.88;3.33;;;9.00;99.90;;;;;;5116101;28;20107;-72
2022/01/30 00:36:25;;;;;;;16.23;4.07;;;9.00;99.90;;;;;;5116584;28;20043;-72
2022/01/30 00:38:51;;;;;;;15.65;3.40;;;9.10;99.90;;;;;;5121062;27;20091;-73
2022/01/30 00:41:17;;;;;;;18.58;3.40;;;9.10;99.90;;;;;;5116597;28;20027;-72
2022/01/30 00:43:43;;;;;;;14.70;4.00;;;9.10;99.90;;;;;;5115205;28;20388;-72
2022/01/30 00:46:09;;;;;;;18.17;4.57;;;9.20;99.90;;;;;;5116073;28;20118;-73
2022/01/30 00:48:35;;;;;;;12.02;3.55;;;9.10;99.90;;;;;;5114873;28;20023;-72
2022/01/30 00:51:00;;;;;;;16.52;3.47;;;9.10;99.90;;;;;;5115671;28;20027;-72
2022/01/30 00:53:26;;;;;;;15.43;3.28;;;9.00;99.90;;;;;;5115189;28;20019;-72
2022/01/30 00:55:52;;;;;;;19.63;4.50;;;8.90;99.90;;;;;;5114487;28;20407;-73
2022/01/30 00:58:17;;;;;;;21.23;3.83;;;8.90;99.90;;;;;;5116630;27;20027;-71
2022/01/30 01:00:43;;;;;;;16.27;3.67;;;8.90;99.90;;;;;;5120479;27;20477;-71
2022/01/30 01:03:09;;;;;;;15.50;3.17;;;8.90;99.90;;;;;;5134580;27;20023;-73
2022/01/30 01:05:36;;;;;;;17.55;4.75;;;9.00;99.90;;;;;;5136364;27;20085;-72
2022/01/30 01:08:12;;;;;;;14.38;3.63;;;8.90;99.90;;;;;;5134739;27;20027;-72
2022/01/30 01:10:47;;;;;;;18.70;3.20;;;9.00;99.90;;;;;;5135368;27;20456;-75
2022/01/30 01:24:07;;;;;;;13.32;2.72;;;8.90;99.90;;;;;;5135958;27;20031;-73
2022/01/30 01:26:35;;;;;;;13.60;2.97;;;8.80;99.90;;;;;;5136120;27;20057;-67
2022/01/30 01:29:01;;;;;;;7.20;2.58;;;9.20;99.90;;;;;;5135666;27;20442;-70
2022/01/30 01:31:27;;;;;;;13.40;3.38;;;10.00;99.90;;;;;;5137574;27;20023;-71
2022/01/30 01:36:25;;;;;;;14.57;3.13;;;9.20;99.90;;;;;;5139330;27;20030;-72
2022/01/30 01:38:51;;;;;;;11.10;2.80;;;9.10;99.90;;;;;;5139303;27;20388;-74
2022/01/30 01:41:20;;;;;;;23.88;4.07;;;9.00;99.90;;;;;;5138654;27;20023;-72
2022/01/30 01:43:48;;;;;;;12.27;2.58;;;8.90;99.90;;;;;;5137730;27;20024;-72
2022/01/30 01:46:19;;;;;;;13.88;2.45;;;8.90;99.90;;;;;;5139512;27;20074;-72
2022/01/30 01:48:47;;;;;;;8.52;3.30;;;8.90;99.90;;;;;;5139254;27;20019;-71
2022/01/30 01:51:19;;;;;;;17.05;3.60;;;8.90;99.90;;;;;;5135454;27;20027;-70
2022/01/30 01:53:47;;;;;;;13.70;4.00;;;8.90;99.90;;;;;;5135995;27;20023;-71
2022/01/30 01:56:15;;;;;;;11.75;3.08;;;8.80;99.90;;;;;;5129807;27;20027;-72
2022/01/30 01:58:41;;;;;;;18.27;3.78;;;8.80;99.90;;;;;;5124806;27;20031;-71
2022/01/30 02:01:07;;;;;;;18.85;3.28;;;8.80;99.90;;;;;;5122340;27;20023;-72
2022/01/30 02:03:40;;;;;;;14.40;2.88;;;8.80;99.90;;;;;;5126806;27;20019;-71
2022/01/30 02:06:12;;;;;;;14.25;3.17;;;8.80;99.90;;;;;;5127433;27;20034;-71
2022/01/30 02:08:50;;;;;;;14.02;2.80;;;8.80;99.90;;;;;;5123928;27;20028;-72
2022/01/30 02:11:40;;;;;;;15.68;2.78;;;8.80;99.90;;;;;;5122678;27;20377;-72
2022/01/30 02:27:22;;;;;;;36.70;5.53;;;8.80;99.90;;;;;;5119425;27;20083;-71
2022/01/30 02:29:48;;;;;;;16.30;3.13;;;8.80;99.90;;;;;;5115060;28;20023;-71
2022/01/30 02:32:14;;;;;;;15.45;4.43;;;8.70;99.90;;;;;;5113982;28;20245;-71
2022/01/30 02:34:42;;;;;;;12.20;2.97;;;8.70;99.90;;;;;;5116676;27;20127;-72
2022/01/30 02:37:08;;;;;;;29.17;4.20;;;8.70;99.90;;;;;;5113394;28;20027;-70
2022/01/30 02:39:34;;;;;;;12.68;3.20;;;8.60;99.90;;;;;;5117175;28;20028;-71
2022/01/30 02:42:00;;;;;;;14.57;3.05;;;8.60;99.90;;;;;;5121496;27;20463;-71
2022/01/30 02:44:41;;;;;;;10.82;2.65;;;8.70;99.90;;;;;;5124324;27;20072;-71
2022/01/30 02:47:10;;;;;;;5.97;2.77;;;8.70;99.90;;;;;;5123850;27;20472;-72
2022/01/30 02:50:07;;;;;;;12.32;3.00;;;8.60;99.90;;;;;;5123706;27;20050;-70
2022/01/30 02:52:31;;;;;;;13.98;2.75;;;8.50;99.90;;;;;;5122498;27;20055;-72
2022/01/30 02:54:57;;;;;;;11.73;2.85;;;8.50;99.90;;;;;;5131800;27;20027;-73
2022/01/30 02:57:22;;;;;;;8.05;2.38;;;8.40;99.90;;;;;;5127818;27;20406;-72
2022/01/30 02:59:49;;;;;;;13.93;3.10;;;8.40;99.90;;;;;;5125940;27;20036;-70
2022/01/30 03:02:16;;;;;;;10.65;2.55;;;8.40;99.90;;;;;;5124857;27;20121;-72
2022/01/30 03:04:41;;;;;;;12.25;2.90;;;8.40;99.90;;;;;;5120428;27;20042;-71
2022/01/30 03:07:07;;;;;;;11.60;2.50;;;8.40;99.90;;;;;;5126786;27;20481;-71
2022/01/30 03:09:34;;;;;;;8.95;3.08;;;8.50;99.90;;;;;;5123589;27;20028;-72
2022/01/30 03:11:59;;;;;;;8.07;2.20;;;8.40;99.90;;;;;;5126472;27;20024;-71
2022/01/30 03:14:25;;;;;;;14.00;3.20;;;8.40;99.90;;;;;;5125845;28;20417;-72
2022/01/30 03:16:51;;;;;;;20.05;3.97;;;8.40;99.90;;;;;;5130961;28;20384;-72
2022/01/30 03:19:17;;;;;;;18.92;3.92;;;8.20;99.90;;;;;;5126714;28;20024;-72
2022/01/30 03:21:42;;;;;;;12.18;2.33;;;8.20;99.90;;;;;;5130385;28;20517;-76
2022/01/30 03:24:08;;;;;;;13.15;3.50;;;8.20;99.90;;;;;;5125500;28;20027;-72
2022/01/30 03:26:38;;;;;;;15.35;2.75;;;8.20;99.90;;;;;;5127214;28;20031;-72
2022/01/30 03:29:06;;;;;;;13.88;3.08;;;8.00;99.90;;;;;;5125111;28;20024;-72
2022/01/30 03:31:37;;;;;;;10.93;2.90;;;8.10;99.90;;;;;;5130076;28;20023;-72
2022/01/30 03:34:05;;;;;;;15.93;3.55;;;8.10;99.90;;;;;;5137930;27;20440;-72
2022/01/30 03:36:31;;;;;;;16.55;3.63;;;8.00;99.90;;;;;;5132704;27;20031;-71
2022/01/30 03:38:58;;;;;;;13.50;3.03;;;8.00;99.90;;;;;;5121917;28;20024;-71
2022/01/30 03:41:26;;;;;;;20.90;4.63;;;7.90;99.90;;;;;;5118610;28;20024;-75
2022/01/30 03:43:52;;;;;;;12.23;2.85;;;8.00;99.90;;;;;;5132169;27;20031;-73
2022/01/30 03:46:19;;;;;;;14.70;4.20;;;8.00;99.90;;;;;;5132773;27;20373;-70
2022/01/30 03:48:45;;;;;;;13.85;3.22;;;8.00;99.90;;;;;;5131607;27;20027;-70
2022/01/30 03:51:11;;;;;;;16.83;2.97;;;8.00;99.90;;;;;;5134291;27;20123;-71
2022/01/30 03:53:37;;;;;;;13.40;3.03;;;7.80;99.90;;;;;;5138100;27;20030;-71
2022/01/30 03:56:03;;;;;;;12.48;3.00;;;7.80;99.90;;;;;;5130314;27;20028;-73
2022/01/30 03:58:29;;;;;;;19.42;2.95;;;7.80;99.90;;;;;;5134993;27;20418;-73
2022/01/30 04:00:55;;;;;;;15.63;4.28;;;7.70;99.90;;;;;;5122991;27;20027;-73
2022/01/30 04:03:21;;;;;;;14.65;2.95;;;7.70;99.90;;;;;;5131796;27;20027;-75
2022/01/30 04:05:47;;;;;;;9.57;2.65;;;7.70;99.90;;;;;;5127035;27;20031;-72
2022/01/30 04:08:13;;;;;;;11.63;3.28;;;7.70;99.90;;;;;;5125799;27;20504;-71
2022/01/30 04:10:39;;;;;;;13.02;2.70;;;7.70;99.90;;;;;;5130211;27;20015;-72
2022/01/30 04:13:05;;;;;;;20.95;5.55;;;7.70;99.90;;;;;;5137175;27;20057;-70
2022/01/30 04:15:31;;;;;;;13.80;2.88;;;7.80;99.90;;;;;;5137254;27;20035;-70
2022/01/30 04:17:57;;;;;;;15.75;2.50;;;7.80;99.90;;;;;;5139134;27;20041;-75
2022/01/30 04:20:23;;;;;;;12.18;3.60;;;7.80;99.90;;;;;;5138168;27;20027;-72
2022/01/30 04:22:49;;;;;;;20.83;3.95;;;7.60;99.90;;;;;;5138071;27;20019;-70
2022/01/30 04:25:14;;;;;;;39.05;5.03;;;7.60;99.90;;;;;;5138580;27;20543;-72
2022/01/30 04:27:40;;;;;;;11.45;2.50;;;7.60;99.90;;;;;;5140606;27;20092;-70
2022/01/30 04:30:07;;;;;;;13.70;3.97;;;7.60;99.90;;;;;;5141118;27;20031;-72
2022/01/30 04:32:34;;;;;;;14.20;3.45;;;7.60;99.90;;;;;;5141902;27;20536;-72
2022/01/30 04:35:09;;;;;;;11.05;2.67;;;7.60;99.90;;;;;;5123478;27;20076;-72
2022/01/30 04:54:34;;;;;;;23.45;3.08;;;7.30;99.90;;;;;;5120276;28;20462;-71
2022/01/30 04:59:17;;;;;;;16.13;4.10;;;7.30;99.90;;;;;;5127976;27;20027;-71
2022/01/30 05:04:29;;;;;;;14.43;3.03;;;7.30;99.90;;;;;;5120108;28;20024;-71
2022/01/30 05:09:27;;;;;;;;;;;7.20;99.90;;;;;;5118372;28;20496;-70
2022/01/30 05:11:54;;;;;;;10.80;2.40;;;7.20;99.90;;;;;;5116125;28;19928;-69
2022/01/30 05:14:23;;;;;;;21.23;4.45;;;7.20;99.90;;;;;;5116243;28;20521;-70
2022/01/30 05:16:48;;;;;;;20.83;4.38;;;7.10;99.90;;;;;;5117073;28;20042;-71
2022/01/30 05:19:15;;;;;;;13.38;2.97;;;7.10;99.90;;;;;;5115976;28;20043;-70
2022/01/30 05:21:41;;;;;;;12.35;3.47;;;7.30;99.90;;;;;;5114521;28;20062;-71
2022/01/30 05:24:08;;;;;;;15.15;3.22;;;7.30;99.90;;;;;;5115555;28;20028;-70
2022/01/30 05:26:40;;;;;;;16.92;2.85;;;7.20;99.90;;;;;;5114275;28;20123;-70
2022/01/30 05:29:06;;;;;;;9.55;3.13;;;7.20;99.90;;;;;;5114988;28;20020;-70
2022/01/30 05:31:32;;;;;;;14.85;3.25;;;7.20;99.90;;;;;;5116028;28;20055;-71
2022/01/30 05:33:58;;;;;;;16.52;3.08;;;7.10;99.90;;;;;;5115251;28;20031;-70
2022/01/30 05:36:24;;;;;;;12.35;2.95;;;7.20;99.90;;;;;;5115551;28;20031;-70
2022/01/30 05:38:51;;;;;;;15.15;3.20;;;7.20;99.90;;;;;;5115641;28;20481;-71
2022/01/30 05:41:17;;;;;;;16.77;2.75;;;7.20;99.90;;;;;;5115037;28;20038;-70
2022/01/30 05:43:46;;;;;;;17.88;3.55;;;7.20;99.90;;;;;;5115561;28;20024;-70
2022/01/30 05:46:18;;;;;;;13.90;2.70;;;7.20;99.90;;;;;;5118980;28;20484;-70
2022/01/30 05:48:43;;;;;;;;;;;7.20;99.90;;;;;;5101173;28;20032;-70
2022/01/30 05:51:09;;;;;;;12.95;2.80;;;7.20;99.90;;;;;;5116245;28;19910;-71
2022/01/30 05:53:35;;;;;;;16.80;3.00;;;7.10;99.90;;;;;;5117536;28;20446;-71
2022/01/30 05:56:01;;;;;;;11.35;2.65;;;7.20;99.90;;;;;;5115304;28;20528;-70
2022/01/30 05:58:26;;;;;;;12.13;3.30;;;7.20;99.90;;;;;;5114053;28;20369;-70
2022/01/30 06:00:52;;;;;;;19.15;3.30;;;7.30;99.90;;;;;;5117708;28;20020;-71
2022/01/30 06:03:18;;;;;;;11.57;2.58;;;7.30;99.90;;;;;;5116850;27;20457;-70
2022/01/30 06:05:46;;;;;;;15.48;2.33;;;7.20;99.90;;;;;;5114658;28;20131;-70
2022/01/30 06:08:37;;;;;;;14.32;3.00;;;7.30;99.90;;;;;;5115673;28;20107;-72
2022/01/30 06:11:01;;;;;;;10.90;3.40;;;7.30;99.90;;;;;;5114580;28;20043;-71
2022/01/30 06:13:28;;;;;;;10.23;2.25;;;7.20;99.90;;;;;;5096004;28;20385;-71
2022/01/30 06:15:54;;;;;;;15.93;3.42;;;7.20;99.90;;;;;;5114525;28;20038;-70
2022/01/30 06:18:19;;;;;;;19.05;2.90;;;7.30;99.90;;;;;;5114267;28;20027;-71
2022/01/30 06:20:45;;;;;;;22.10;3.47;;;7.30;99.90;;;;;;5113337;28;20027;-72
2022/01/30 06:23:11;;;;;;;17.42;3.05;;;7.40;99.90;;;;;;5113663;28;20337;-72
2022/01/30 06:25:36;;;;;;;11.35;2.35;;;7.50;99.90;;;;;;5112834;28;20191;-70
2022/01/30 06:28:02;;;;;;;21.20;3.40;;;7.40;99.90;;;;;;5112957;28;20062;-71
2022/01/30 06:30:28;;;;;;;11.23;2.47;;;7.30;99.90;;;;;;5113501;28;20458;-71
2022/01/30 06:32:54;;;;;;;14.82;2.97;;;7.30;99.90;;;;;;5114099;28;20046;-71
2022/01/30 06:35:19;;;;;;;10.93;2.40;;;7.40;99.90;;;;;;5114278;28;20082;-70
2022/01/30 06:37:45;;;;;;;19.30;2.85;;;7.40;99.90;;;;;;5114092;28;20084;-71
2022/01/30 06:40:12;;;;;;;14.98;3.30;;;7.30;99.90;;;;;;5115924;28;20088;-74
2022/01/30 06:42:37;;;;;;;13.90;2.83;;;7.20;99.90;;;;;;5118027;28;20027;-73
2022/01/30 06:45:03;;;;;;;15.60;2.60;;;7.20;99.90;;;;;;5118249;28;20054;-70
2022/01/30 06:47:29;;;;;;;14.73;2.50;;;7.20;99.90;;;;;;5119594;28;20061;-72
2022/01/30 06:49:55;;;;;;;16.40;3.53;;;7.10;99.90;;;;;;5118906;28;20106;-72
2022/01/30 06:52:20;;;;;;;11.77;3.33;;;7.00;99.90;;;;;;5118977;28;20034;-72
2022/01/30 06:54:46;;;;;;;14.77;3.40;;;7.00;99.90;;;;;;5119540;28;20031;-73
2022/01/30 06:57:12;;;;;;;11.43;2.10;;;7.10;99.90;;;;;;5116724;28;20023;-74
2022/01/30 06:59:38;;;;;;;14.00;2.60;;;7.10;99.90;;;;;;5115636;28;20043;-72
2022/01/30 07:02:06;;;;;;;14.70;3.33;;;7.00;99.90;;;;;;5115425;28;20024;-71
2022/01/30 07:04:31;;;;;;;17.95;3.15;;;6.90;99.90;;;;;;5116553;28;20377;-70
2022/01/30 07:06:57;;;;;;;12.68;2.42;;;6.90;99.90;;;;;;5116659;28;20028;-70
2022/01/30 07:09:23;;;;;;;11.30;2.55;;;6.90;99.90;;;;;;5113268;28;20111;-70
2022/01/30 07:11:49;;;;;;;10.82;2.35;;;6.90;99.90;;;;;;5112760;28;20024;-70
2022/01/30 07:14:15;;;;;;;14.45;2.90;;;6.90;99.90;;;;;;5112098;28;20030;-71
2022/01/30 07:16:40;;;;;;;11.70;2.17;;;6.90;99.90;;;;;;5114299;28;20034;-70
2022/01/30 07:19:06;;;;;;;10.77;2.42;;;6.90;99.90;;;;;;5113762;28;20469;-71
2022/01/30 07:21:31;;;;;;;11.95;2.47;;;6.80;99.90;;;;;;5113544;28;20461;-72
2022/01/30 07:23:57;;;;;;;10.20;2.47;;;6.70;99.90;;;;;;5113235;28;20098;-75
2022/01/30 07:26:23;;;;;;;9.13;1.92;;;6.70;99.90;;;;;;5112326;28;20034;-71
2022/01/30 07:28:49;;;;;;;19.70;3.38;;;6.70;99.90;;;;;;5112973;28;20034;-72
2022/01/30 07:31:14;;;;;;;15.30;2.90;;;6.70;99.90;;;;;;5113232;28;20059;-72
2022/01/30 07:33:40;;;;;;;12.07;2.55;;;6.70;99.90;;;;;;5113939;28;20061;-70
2022/01/30 07:36:08;;;;;;;12.65;2.20;;;6.70;99.90;;;;;;5114083;28;20024;-70
2022/01/30 07:38:35;;;;;;;12.77;2.85;;;6.70;99.90;;;;;;5113753;28;20020;-70
2022/01/30 07:41:01;;;;;;;13.82;2.40;;;6.70;99.90;;;;;;5114068;28;20055;-72
2022/01/30 07:43:26;;;;;;;8.98;2.30;;;6.70;99.90;;;;;;5111952;28;20405;-71
2022/01/30 07:45:52;;;;;;;10.18;2.38;;;6.70;99.90;;;;;;5113652;28;20089;-70
2022/01/30 07:48:18;;;;;;;8.13;2.20;;;6.70;99.90;;;;;;5111828;28;20066;-71
2022/01/30 07:50:44;;;;;;;19.42;3.00;;;6.90;99.90;;;;;;5111898;28;20035;-70
2022/01/30 07:53:10;;;;;;;13.45;2.95;;;7.10;99.90;;;;;;5112004;28;20024;-71
2022/01/30 07:55:36;;;;;;;17.75;3.00;;;7.20;99.90;;;;;;5112871;28;20035;-73
2022/01/30 07:58:01;;;;;;;8.57;2.42;;;7.10;99.90;;;;;;5112192;28;20031;-71
2022/01/30 08:00:27;;;;;;;8.10;2.08;;;7.00;99.90;;;;;;5111488;28;20031;-70
2022/01/30 08:02:53;;;;;;;17.45;3.38;;;6.90;99.90;;;;;;5112103;28;20020;-71
2022/01/30 08:05:19;;;;;;;9.35;2.20;;;6.80;99.90;;;;;;5113206;28;20023;-71
2022/01/30 08:07:44;;;;;;;7.05;2.20;;;6.80;99.90;;;;;;5112112;28;20104;-73
2022/01/30 08:10:10;;;;;;;13.02;2.15;;;6.90;99.90;;;;;;5113248;28;20414;-72
2022/01/30 08:12:38;;;;;;;13.52;3.08;;;6.90;99.90;;;;;;5113073;28;20262;-70
2022/01/30 08:15:04;;;;;;;14.63;2.10;;;7.00;99.90;;;;;;5113695;28;20020;-71
2022/01/30 08:17:32;;;;;;;11.95;2.25;;;6.90;99.90;;;;;;5130583;28;20031;-70
2022/01/30 08:19:58;;;;;;;16.15;2.42;;;6.80;99.90;;;;;;5130206;27;20368;-72
2022/01/30 08:22:28;;;;;;;11.60;2.22;;;6.90;99.90;;;;;;5116832;28;20111;-73
2022/01/30 08:24:53;;;;;;;10.60;1.88;;;7.00;99.90;;;;;;5114224;28;20032;-68
2022/01/30 08:27:19;;;;;;;12.02;3.03;;;7.70;99.90;;;;;;5112287;28;20051;-61
2022/01/30 08:29:45;;;;;;;7.22;1.58;;;9.40;99.90;;;;;;5113512;28;20028;-66
2022/01/30 08:32:11;;;;;;;15.00;2.63;;;10.80;99.90;;;;;;5126272;27;20031;-68
2022/01/30 08:34:39;;;;;;;9.70;2.38;;;11.20;99.90;;;;;;5132424;27;20027;-72
2022/01/30 08:37:05;;;;;;;23.08;3.25;;;10.00;99.90;;;;;;5130253;27;20042;-71
2022/01/30 08:39:30;;;;;;;11.63;2.20;;;8.70;99.90;;;;;;5135397;27;20123;-65
2022/01/30 08:41:56;;;;;;;6.65;1.45;;;8.60;99.90;;;;;;5135178;27;20101;-66
2022/01/30 08:44:22;;;;;;;11.90;2.85;;;10.10;99.90;;;;;;5135409;27;20384;-73
2022/01/30 08:46:47;;;;;;;10.88;2.35;;;10.30;99.90;;;;;;5139081;27;20031;-73
2022/01/30 08:49:14;;;;;;;10.18;2.40;;;8.90;99.90;;;;;;5142170;27;20031;-74
2022/01/30 08:51:40;;;;;;;17.40;4.20;;;8.50;99.90;;;;;;5129106;27;20020;-73
2022/01/30 08:54:05;;;;;;;12.38;3.08;;;8.20;99.90;;;;;;5118911;28;20074;-74
2022/01/30 08:56:31;;;;;;;15.50;2.65;;;8.30;99.90;;;;;;5134185;27;20035;-73
2022/01/30 08:58:57;;;;;;;10.57;2.20;;;8.10;99.90;;;;;;5140736;27;20383;-72
2022/01/30 09:01:24;;;;;;;14.60;2.85;;;8.00;99.90;;;;;;5137067;27;20031;-72
2022/01/30 09:03:50;;;;;;;12.80;2.65;;;8.20;99.90;;;;;;5137484;27;20395;-72
2022/01/30 09:06:16;;;;;;;12.48;2.03;;;8.80;99.90;;;;;;5139456;27;20031;-72
2022/01/30 09:08:42;;;;;;;13.00;3.38;;;9.20;99.90;;;;;;5139186;27;20491;-76
2022/01/30 09:11:07;;;;;;;10.68;2.20;;;9.60;99.90;;;;;;5139630;27;20054;-72
2022/01/30 09:13:33;;;;;;;26.52;4.05;;;9.60;99.90;;;;;;5137156;27;20388;-72
2022/01/30 09:16:01;;;;;;;11.80;2.42;;;9.70;99.90;;;;;;5139286;27;20061;-71
2022/01/30 09:18:27;;;;;;;8.90;2.90;;;9.90;99.20;;;;;;5140124;27;20031;-74
2022/01/30 09:20:53;;;;;;;15.82;2.22;;;10.30;98.60;;;;;;5137858;27;20425;-72
2022/01/30 09:23:20;;;;;;;11.80;2.15;;;10.30;97.90;;;;;;5135659;27;20046;-72
2022/01/30 09:25:47;;;;;;;18.52;3.58;;;10.40;97.90;;;;;;5135472;27;20034;-69
2022/01/30 09:28:13;;;;;;;18.42;3.03;;;10.00;99.90;;;;;;5135010;27;20050;-70
2022/01/30 09:30:39;;;;;;;7.47;1.90;;;11.20;99.90;;;;;;5139352;27;20495;-66
2022/01/30 09:33:05;;;;;;;10.20;2.53;;;11.20;98.60;;;;;;5138403;27;20023;-73
2022/01/30 09:35:31;;;;;;;10.38;1.92;;;9.90;98.10;;;;;;5134324;27;20026;-72
2022/01/30 09:37:59;;;;;;;13.48;3.30;;;9.20;98.90;;;;;;5134404;27;20388;-71
2022/01/30 09:40:25;;;;;;;14.40;2.40;;;9.00;99.70;;;;;;5134628;27;20503;-71
2022/01/30 09:42:52;;;;;;;9.50;2.45;;;8.70;99.50;;;;;;5135960;27;20023;-71
2022/01/30 09:45:20;;;;;;;14.02;3.10;;;8.70;99.70;;;;;;5135538;27;20114;-73
2022/01/30 09:47:46;;;;;;;18.42;4.40;;;8.60;99.40;;;;;;5134690;27;20032;-71
2022/01/30 09:50:12;;;;;;;10.60;2.17;;;8.60;99.00;;;;;;5136389;27;20087;-70
2022/01/30 09:52:38;;;;;;;15.25;3.28;;;8.40;99.30;;;;;;5136195;27;20043;-71
2022/01/30 09:55:05;;;;;;;14.75;4.20;;;8.40;99.70;;;;;;5137670;27;20023;-70
2022/01/30 09:57:31;;;;;;;11.77;2.80;;;8.70;99.40;;;;;;5136849;27;20058;-72
2022/01/30 09:59:57;;;;;;;16.00;3.45;;;8.50;99.40;;;;;;5140433;27;20413;-71
2022/01/30 10:02:26;;;;;;;19.40;5.43;;;8.60;99.50;;;;;;5137432;27;20090;-74
2022/01/30 10:04:52;;;;;;;11.65;4.05;;;8.80;99.60;;;;;;5137200;27;20027;-72
2022/01/30 10:07:20;;;;;;;19.33;3.22;;;8.90;99.00;;;;;;5138770;27;20043;-75
2022/01/30 10:09:50;;;;;;;19.25;2.95;;;8.70;99.20;;;;;;5136990;27;20029;-73
2022/01/30 10:12:20;;;;;;;13.80;3.17;;;8.70;99.20;;;;;;5137183;27;20030;-72
2022/01/30 10:15:11;;;;;;;11.57;2.42;;;8.70;99.40;;;;;;5136814;27;20076;-71
2022/01/30 10:17:39;;;;;;;22.98;3.25;;;8.70;99.40;;;;;;5138144;27;20069;-71
2022/01/30 10:20:16;;;;;;;10.68;2.05;;;8.70;99.50;;;;;;5136775;27;20473;-72
2022/01/30 10:23:01;;;;;;;16.15;2.97;;;8.70;99.70;;;;;;5139166;27;20020;-72
2022/01/30 10:25:29;;;;;;;15.02;3.05;;;8.60;99.50;;;;;;5135738;27;20034;-70
2022/01/30 10:28:05;;;;;;;19.45;3.05;;;8.60;99.60;;;;;;5135056;27;20084;-71
2022/01/30 10:30:43;;;;;;;10.93;2.47;;;8.60;99.30;;;;;;5134418;27;20031;-71
2022/01/30 10:33:12;;;;;;;15.05;2.67;;;8.40;99.30;;;;;;5135783;27;20027;-71
2022/01/30 10:35:56;;;;;;;10.73;2.47;;;8.40;99.30;;;;;;5136132;27;20023;-71
2022/01/30 10:38:25;;;;;;;13.95;2.15;;;8.40;99.30;;;;;;5138179;27;20027;-71
2022/01/30 10:40:53;;;;;;;16.25;2.42;;;8.40;99.00;;;;;;5136606;27;20019;-70
2022/01/30 10:43:22;;;;;;;15.50;3.08;;;8.40;99.30;;;;;;5135652;27;20034;-70
2022/01/30 10:45:48;;;;;;;12.07;2.65;;;8.40;98.80;;;;;;5135948;27;20047;-70
2022/01/30 10:48:20;;;;;;;15.57;2.90;;;8.30;99.00;;;;;;5134323;27;20417;-73
2022/01/30 10:50:48;;;;;;;9.18;1.90;;;8.20;99.60;;;;;;5135502;27;20320;-71
2022/01/30 10:53:25;;;;;;;16.23;2.88;;;8.10;99.10;;;;;;5134505;27;20015;-71
2022/01/30 10:55:52;;;;;;;10.27;2.53;;;8.10;99.30;;;;;;5133787;27;20126;-71
2022/01/30 10:58:23;;;;;;;13.15;2.85;;;8.10;99.10;;;;;;5134253;27;20050;-71
2022/01/30 11:00:55;;;;;;;16.92;3.67;;;8.10;98.90;;;;;;5134300;27;20019;-72
2022/01/30 11:03:50;;;;;;;12.73;2.85;;;8.00;99.30;;;;;;5134028;27;20034;-71
2022/01/30 11:06:17;;;;;;;14.68;2.28;;;8.10;99.60;;;;;;5135592;27;20023;-73
2022/01/30 11:08:45;;;;;;;11.07;2.00;;;8.10;99.60;;;;;;5135342;27;20028;-73
2022/01/30 11:13:58;;;;;;;13.85;3.65;;;8.30;99.40;;;;;;5134478;27;20023;-73
2022/01/30 11:19:11;;;;;;;13.25;2.85;;;8.10;99.90;;;;;;5135011;28;20038;-76
2022/01/30 11:21:39;;;;;;;16.38;4.07;;;8.10;99.70;;;;;;5133232;28;20031;-72
2022/01/30 11:24:07;;;;;;;11.18;2.65;;;8.10;99.40;;;;;;5133981;28;20027;-73
2022/01/30 11:26:32;;;;;;;18.73;3.05;;;7.90;99.70;;;;;;5133646;28;20028;-72
2022/01/30 11:28:59;;;;;;;14.60;3.95;;;8.00;99.80;;;;;;5136177;28;20525;-73
2022/01/30 11:31:26;;;;;;;15.25;3.75;;;8.00;99.20;;;;;;5135146;28;20061;-69
2022/01/30 11:33:52;;;;;;;15.10;2.90;;;7.90;99.80;;;;;;5134281;27;20055;-71
2022/01/30 11:36:20;;;;;;;14.85;3.08;;;8.20;99.90;;;;;;5132953;28;20031;-70
2022/01/30 11:38:46;;;;;;;16.58;3.20;;;9.50;99.60;;;;;;5133577;27;20068;-73
2022/01/30 11:41:16;;;;;;;12.93;3.22;;;9.30;97.80;;;;;;5133212;28;20034;-73
2022/01/30 11:44:22;;;;;;;17.25;3.10;;;9.20;96.40;;;;;;5133283;28;20349;-72
2022/01/30 11:46:57;;;;;;;9.15;3.35;;;8.70;96.70;;;;;;5134440;27;20031;-70
2022/01/30 11:49:37;;;;;;;16.33;5.18;;;8.70;96.70;;;;;;5134170;28;20118;-72
2022/01/30 11:52:13;;;;;;;21.63;3.28;;;8.70;96.90;;;;;;5135064;27;20027;-71
2022/01/30 11:54:57;;;;;;;17.77;2.65;;;8.70;97.10;;;;;;5135568;27;20478;-72
2022/01/30 11:57:22;;;;;;;12.98;3.10;;;8.40;97.60;;;;;;5134611;28;20122;-73
2022/01/30 11:59:51;;;;;;;18.40;3.78;;;8.40;97.40;;;;;;5135091;28;20073;-73
2022/01/30 12:02:33;;;;;;;18.05;4.03;;;8.50;97.40;;;;;;5135631;28;20027;-72
2022/01/30 12:05:06;;;;;;;17.10;3.92;;;8.40;97.50;;;;;;5137492;27;20031;-72
2022/01/30 12:07:46;;;;;;;15.57;3.55;;;8.40;97.60;;;;;;5139215;27;20023;-75
2022/01/30 12:10:26;;;;;;;19.88;3.97;;;8.20;98.10;;;;;;5140147;27;20114;-72
2022/01/30 12:13:12;;;;;;;18.00;4.10;;;8.30;98.30;;;;;;5139500;27;20027;-71
2022/01/30 12:15:38;;;;;;;20.90;3.70;;;8.20;98.60;;;;;;5039860;28;20033;-72
2022/01/30 12:18:05;;;;;;;18.48;4.32;;;8.10;98.90;;;;;;5057811;28;20087;-73
2022/01/30 12:21:08;;;;;;;20.10;3.70;;;8.10;99.30;;;;;;5040446;28;20059;-74
2022/01/30 12:23:42;;;;;;;16.38;4.28;;;8.20;99.40;;;;;;5042340;28;20021;-72
2022/01/30 12:26:16;;;;;;;15.30;4.72;;;8.10;99.70;;;;;;5042910;28;20041;-71
2022/01/30 12:28:48;;;;;;;19.73;3.58;;;8.20;99.60;;;;;;5040715;28;20139;-70
2022/01/30 12:31:34;;;;;;;16.75;3.50;;;8.10;99.80;;;;;;5041141;28;20052;-71
2022/01/30 12:34:08;;;;;;;19.83;4.55;;;8.10;99.90;;;;;;5056519;28;20471;-71
2022/01/30 12:36:39;;;;;;;26.60;4.05;;;8.10;99.90;;;;;;5055819;28;20044;-70
2022/01/30 12:39:08;;;;;;;22.13;4.47;;;8.00;99.90;;;;;;5056080;28;20433;-70
2022/01/30 12:41:36;;;;;;;15.70;3.92;;;8.00;99.90;;;;;;5037582;28;20029;-72
2022/01/30 12:44:10;;;;;;;15.00;4.63;;;8.10;99.90;;;;;;5054571;28;20478;-74
2022/01/30 12:46:47;;;;;;;16.33;3.17;;;8.20;99.90;;;;;;5037496;28;20502;-71
2022/01/30 12:49:17;;;;;;;18.85;3.92;;;8.10;98.70;;;;;;5054943;28;20518;-71
2022/01/30 12:51:48;;;;;;;24.27;5.10;;;8.10;98.20;;;;;;5046127;27;20032;-71
2022/01/30 12:54:15;;;;;;;24.25;4.68;;;8.20;98.10;;;;;;5137964;27;20015;-71
2022/01/30 12:56:41;;;;;;;20.25;3.45;;;8.40;98.10;;;;;;5136458;27;20062;-69
2022/01/30 12:59:07;;;;;;;15.63;5.03;;;8.60;98.10;;;;;;5137516;27;20055;-71
2022/01/30 13:01:36;;;;;;;15.40;3.40;;;8.50;96.70;;;;;;5136334;27;20023;-75
2022/01/30 13:04:09;;;;;;;16.65;3.00;;;8.40;96.90;;;;;;5135608;27;20027;-69
2022/01/30 13:06:44;;;;;;;21.40;3.50;;;8.50;96.90;;;;;;5135218;27;20039;-71
2022/01/30 13:09:11;;;;;;;13.45;4.47;;;8.50;97.00;;;;;;5118950;27;20027;-72
2022/01/30 13:11:38;;;;;;;14.50;3.95;;;8.40;97.30;;;;;;5136365;27;20152;-70
2022/01/30 13:14:08;;;;;;;19.10;5.35;;;8.50;97.40;;;;;;5136257;27;20055;-70
2022/01/30 13:16:40;;;;;;;25.77;4.88;;;8.50;97.70;;;;;;5137000;27;20038;-71
2022/01/30 13:19:26;;;;;;;21.42;4.05;;;8.50;97.80;;;;;;5137362;27;20046;-71
2022/01/30 13:21:52;;;;;;;15.48;3.55;;;8.50;97.90;;;;;;5138939;27;20129;-70
2022/01/30 13:24:19;;;;;;;18.92;4.38;;;8.40;98.30;;;;;;5137327;27;20054;-69
2022/01/30 13:26:54;;;;;;;16.92;4.18;;;8.20;98.50;;;;;;5136501;27;20043;-70
2022/01/30 13:29:21;;;;;;;14.52;4.68;;;8.20;98.60;;;;;;5136911;27;20415;-71
2022/01/30 13:31:52;;;;;;;15.93;3.67;;;8.30;98.70;;;;;;5134314;27;20468;-69
2022/01/30 13:34:19;;;;;;;18.93;4.60;;;8.40;98.40;;;;;;5136347;27;20023;-71
2022/01/30 13:36:53;;;;;;;19.13;3.38;;;8.50;98.50;;;;;;5134139;27;20073;-69
2022/01/30 13:39:27;;;;;;;25.42;4.60;;;8.60;98.30;;;;;;5135100;27;20033;-71
2022/01/30 13:42:03;;;;;;;22.25;5.78;;;8.60;98.20;;;;;;5118388;27;20116;-70
2022/01/30 13:44:50;;;;;;;15.02;3.25;;;8.80;98.00;;;;;;5135623;27;20024;-71
2022/01/30 13:47:21;;;;;;;25.55;4.00;;;8.60;97.60;;;;;;5135287;27;20049;-67
2022/01/30 13:49:49;;;;;;;13.98;3.80;;;9.00;99.90;;;;;;5134061;27;20480;-71
2022/01/30 13:52:21;;;;;;;26.58;4.80;;;9.20;98.10;;;;;;5135893;27;20053;-70
2022/01/30 13:55:07;;;;;;;18.67;3.88;;;8.70;98.00;;;;;;5136497;27;20426;-71